createdAt,value
2018-02-04T00:00:27.859Z,22.33
2018-02-04T00:02:58.970Z,25.03
2018-02-04T00:05:30.040Z,23.80
2018-02-04T00:08:01.252Z,22.63
2018-02-04T00:10:32.350Z,24.90
2018-02-04T00:13:03.441Z,23.93
2018-02-04T00:15:34.490Z,23.30
2018-02-04T00:18:05.598Z,25.07
2018-02-04T00:20:36.655Z,24.70
2018-02-04T00:23:07.764Z,26.97
2018-02-04T00:25:38.892Z,24.73
2018-02-04T00:28:10.056Z,24.07
2018-02-04T00:30:41.199Z,24.20
2018-02-04T00:33:12.275Z,25.73
2018-02-04T00:35:43.354Z,22.57
2018-02-04T00:38:14.498Z,25.73
2018-02-04T00:40:45.591Z,22.67
2018-02-04T00:43:16.691Z,23.63
2018-02-04T00:45:47.735Z,27.27
2018-02-04T00:48:18.810Z,25.07
2018-02-04T00:50:49.853Z,23.53
2018-02-04T00:53:20.935Z,27.43
2018-02-04T00:55:52.022Z,23.90
2018-02-04T00:58:23.091Z,24.33
2018-02-04T01:00:54.148Z,22.33
2018-02-04T01:03:25.274Z,23.47
2018-02-04T01:05:56.319Z,23.87
2018-02-04T01:08:27.415Z,26.57
2018-02-04T01:10:58.595Z,26.93
2018-02-04T01:13:29.662Z,24.90
2018-02-04T01:16:00.757Z,24.87
2018-02-04T01:18:31.790Z,24.83
2018-02-04T01:21:02.882Z,24.37
2018-02-04T01:23:33.945Z,23.13
2018-02-04T01:26:05.102Z,24.53
2018-02-04T01:28:36.154Z,25.07
2018-02-04T01:31:07.361Z,25.67
2018-02-04T01:33:38.447Z,26.57
2018-02-04T01:36:09.530Z,24.57
2018-02-04T01:38:40.631Z,25.20
2018-02-04T01:41:11.741Z,26.23
2018-02-04T01:43:42.806Z,24.97
2018-02-04T01:46:13.905Z,24.93
2018-02-04T01:48:44.946Z,22.70
2018-02-04T01:51:16.093Z,22.63
2018-02-04T01:53:47.174Z,23.27
2018-02-04T01:56:18.258Z,23.50
2018-02-04T01:58:49.304Z,24.63
2018-02-04T02:01:20.427Z,21.47
2018-02-04T02:03:51.483Z,21.63
2018-02-04T02:06:22.568Z,23.27
2018-02-04T02:08:53.621Z,22.33
2018-02-04T02:11:24.678Z,22.67
2018-02-04T02:13:55.759Z,21.43
2018-02-04T02:16:26.847Z,23.30
2018-02-04T02:18:57.939Z,23.47
2018-02-04T02:21:29.010Z,22.27
2018-02-04T02:24:00.131Z,22.83
2018-02-04T02:26:31.198Z,22.93
2018-02-04T02:29:02.316Z,25.43
2018-02-04T02:31:33.399Z,22.07
2018-02-04T02:34:04.503Z,24.50
2018-02-04T02:36:35.523Z,23.40
2018-02-04T02:39:06.634Z,21.53
2018-02-04T02:41:37.704Z,23.33
2018-02-04T02:44:08.827Z,26.65
2018-02-04T02:46:39.869Z,29.63
2018-02-04T02:49:11.025Z,24.10
2018-02-04T02:51:42.086Z,23.70
2018-02-04T02:54:13.191Z,23.53
2018-02-04T02:56:44.255Z,20.90
2018-02-04T02:59:15.375Z,24.10
2018-02-04T03:01:46.443Z,25.33
2018-02-04T03:04:17.542Z,22.73
2018-02-04T03:06:48.612Z,22.37
2018-02-04T03:09:19.718Z,22.47
2018-02-04T03:11:50.764Z,23.30
2018-02-04T03:14:21.880Z,24.90
2018-02-04T03:16:52.962Z,27.33
2018-02-04T03:19:24.095Z,24.48
2018-02-04T03:21:55.178Z,23.25
2018-02-04T03:24:26.649Z,25.20
2018-02-04T03:26:57.694Z,24.57
2018-02-04T03:29:28.801Z,30.05
2018-02-04T03:31:59.876Z,24.85
2018-02-04T03:34:31.124Z,22.67
2018-02-04T03:37:02.230Z,24.63
2018-02-04T03:39:33.298Z,23.23
2018-02-04T03:42:04.349Z,24.27
2018-02-04T03:44:35.426Z,25.03
2018-02-04T03:47:06.511Z,26.13
2018-02-04T03:49:37.620Z,22.83
2018-02-04T03:52:08.693Z,21.48
2018-02-04T03:54:39.814Z,24.57
2018-02-04T03:57:10.908Z,23.40
2018-02-04T03:59:41.995Z,22.50
2018-02-04T04:02:13.671Z,24.17
2018-02-04T04:04:44.723Z,22.05
2018-02-04T04:07:15.853Z,22.43
2018-02-04T04:09:46.909Z,25.77
2018-02-04T04:12:18.171Z,23.40
2018-02-04T04:14:49.243Z,21.53
2018-02-04T04:17:20.290Z,21.13
2018-02-04T04:19:51.357Z,24.20
2018-02-04T04:22:22.449Z,22.03
2018-02-04T04:24:53.539Z,25.93
2018-02-04T04:27:24.646Z,22.13
2018-02-04T04:29:55.704Z,25.50
2018-02-04T04:32:26.795Z,24.03
2018-02-04T04:34:57.877Z,23.00
2018-02-04T04:37:28.961Z,23.53
2018-02-04T04:40:00.046Z,21.53
2018-02-04T04:42:31.327Z,22.63
2018-02-04T04:45:02.386Z,21.20
2018-02-04T04:47:33.463Z,25.80
2018-02-04T04:50:04.531Z,22.20
2018-02-04T04:52:35.673Z,22.03
2018-02-04T04:55:06.714Z,23.20
2018-02-04T04:57:37.766Z,22.53
2018-02-04T05:00:08.908Z,22.70
2018-02-04T05:02:39.958Z,23.70
2018-02-04T05:05:11.012Z,23.17
2018-02-04T05:07:42.088Z,21.47
2018-02-04T05:10:13.151Z,25.33
2018-02-04T05:12:44.207Z,23.77
2018-02-04T05:15:15.292Z,23.63
2018-02-04T05:17:46.364Z,25.27
2018-02-04T05:20:17.468Z,27.13
2018-02-04T05:22:48.507Z,24.53
2018-02-04T05:25:19.615Z,25.73
2018-02-04T05:27:50.663Z,24.40
2018-02-04T05:30:22.079Z,27.60
2018-02-04T05:32:53.140Z,25.25
2018-02-04T05:35:24.234Z,24.97
2018-02-04T05:37:55.263Z,24.40
2018-02-04T05:40:26.357Z,25.00
2018-02-04T05:42:57.443Z,25.62
2018-02-04T05:45:28.536Z,24.30
2018-02-04T05:47:59.588Z,24.87
2018-02-04T05:50:30.735Z,24.03
2018-02-04T05:53:01.815Z,25.57
2018-02-04T05:55:32.960Z,26.58
2018-02-04T05:58:04.776Z,25.37
2018-02-04T06:00:35.854Z,25.50
2018-02-04T06:03:06.894Z,25.48
2018-02-04T06:05:37.971Z,26.08
2018-02-04T06:08:09.029Z,26.10
2018-02-04T06:10:40.115Z,25.70
2018-02-04T06:13:11.199Z,27.20
2018-02-04T06:15:42.234Z,25.63
2018-02-04T06:18:13.309Z,28.37
2018-02-04T06:20:44.352Z,29.60
2018-02-04T06:23:16.405Z,29.57
2018-02-04T06:25:47.488Z,28.00
2018-02-04T06:28:18.622Z,29.50
2018-02-04T06:30:49.690Z,30.23
2018-02-04T06:33:20.797Z,28.33
2018-02-04T06:35:51.874Z,28.30
2018-02-04T06:38:22.976Z,27.33
2018-02-04T06:40:54.057Z,27.93
2018-02-04T06:43:25.142Z,26.67
2018-02-04T06:45:56.203Z,27.40
2018-02-04T06:48:27.258Z,27.67
2018-02-04T06:50:58.308Z,26.97
2018-02-04T06:53:29.362Z,28.90
2018-02-04T06:56:00.426Z,29.13
2018-02-04T06:58:31.449Z,26.80
2018-02-04T07:01:02.507Z,29.00
2018-02-04T07:03:33.546Z,26.80
2018-02-04T07:06:04.614Z,26.47
2018-02-04T07:08:35.672Z,26.30
2018-02-04T07:11:06.851Z,28.70
2018-02-04T07:13:37.911Z,34.83
2018-02-04T07:16:08.975Z,28.10
2018-02-04T07:18:40.036Z,31.97
2018-02-04T07:21:11.092Z,28.80
2018-02-04T07:23:42.195Z,31.60
2018-02-04T07:26:13.264Z,30.00
2018-02-04T07:28:44.406Z,30.67
2018-02-04T07:31:15.444Z,28.37
2018-02-04T07:33:47.626Z,28.60
2018-02-04T07:36:18.670Z,29.00
2018-02-04T07:38:49.733Z,25.43
2018-02-04T07:41:20.831Z,26.47
2018-02-04T07:43:51.920Z,27.23
2018-02-04T07:46:23.012Z,26.63
2018-02-04T07:48:54.102Z,24.20
2018-02-04T07:51:25.136Z,25.13
2018-02-04T07:53:56.222Z,23.23
2018-02-04T07:56:27.250Z,22.50
2018-02-04T07:58:58.329Z,24.23
2018-02-04T08:01:29.398Z,23.20
2018-02-04T08:04:00.469Z,22.70
2018-02-04T08:06:31.524Z,21.30
2018-02-04T08:09:02.654Z,21.33
2018-02-04T08:11:33.740Z,20.20
2018-02-04T08:14:04.840Z,20.53
2018-02-04T08:16:35.979Z,18.33
2018-02-04T08:19:07.026Z,21.53
2018-02-04T08:21:38.105Z,18.53
2018-02-04T08:24:09.186Z,17.73
2018-02-04T08:26:40.211Z,18.90
2018-02-04T08:29:11.269Z,16.97
2018-02-04T08:31:42.338Z,16.43
2018-02-04T08:34:13.424Z,17.00
2018-02-04T08:36:44.659Z,16.33
2018-02-04T08:39:15.739Z,14.87
2018-02-04T08:41:46.787Z,15.43
2018-02-04T08:44:17.808Z,19.80
2018-02-04T08:46:48.894Z,18.33
2018-02-04T08:49:19.954Z,19.40
2018-02-04T08:51:51.026Z,16.87
2018-02-04T08:54:22.326Z,17.00
2018-02-04T08:56:53.390Z,17.07
2018-02-04T08:59:24.488Z,15.20
2018-02-04T09:01:55.615Z,15.37
2018-02-04T09:04:26.689Z,13.03
2018-02-04T09:06:57.763Z,12.87
2018-02-04T09:09:29.050Z,13.37
2018-02-04T09:12:00.138Z,14.87
2018-02-04T09:14:31.063Z,15.17
2018-02-04T09:17:02.159Z,14.43
2018-02-04T09:19:33.182Z,14.00
2018-02-04T09:22:04.264Z,12.77
2018-02-04T09:24:35.353Z,13.70
2018-02-04T09:27:06.418Z,13.47
2018-02-04T09:29:37.485Z,14.40
2018-02-04T09:32:08.614Z,13.37
2018-02-04T09:34:39.736Z,13.17
2018-02-04T09:37:10.821Z,15.17
2018-02-04T09:39:41.898Z,13.30
2018-02-04T09:42:13.006Z,13.77
2018-02-04T09:44:44.118Z,15.80
2018-02-04T09:47:15.195Z,14.13
2018-02-04T09:49:46.323Z,11.10
2018-02-04T09:52:17.392Z,10.23
2018-02-04T09:54:48.488Z,9.77
2018-02-04T09:57:19.557Z,10.07
2018-02-04T09:59:50.686Z,10.03
2018-02-04T10:02:21.754Z,8.33
2018-02-04T10:04:52.843Z,9.53
2018-02-04T10:07:23.923Z,9.83
2018-02-04T10:09:54.963Z,9.67
2018-02-04T10:12:26.063Z,9.60
2018-02-04T10:14:57.155Z,8.97
2018-02-04T10:17:28.248Z,9.30
2018-02-04T10:19:59.300Z,10.47
2018-02-04T10:22:30.477Z,11.17
2018-02-04T10:25:01.557Z,9.67
2018-02-04T10:27:32.829Z,9.87
2018-02-04T10:30:03.907Z,10.90
2018-02-04T10:32:34.954Z,9.23
2018-02-04T10:35:06.097Z,9.87
2018-02-04T10:37:37.122Z,12.83
2018-02-04T10:40:09.024Z,11.93
2018-02-04T10:42:40.083Z,10.23
2018-02-04T10:45:11.129Z,10.40
2018-02-04T10:47:42.218Z,10.83
2018-02-04T10:50:13.292Z,9.50
2018-02-04T10:52:44.315Z,9.53
2018-02-04T10:55:15.394Z,9.83
2018-02-04T10:57:46.484Z,10.47
2018-02-04T11:00:17.544Z,10.70
2018-02-04T11:02:48.777Z,10.80
2018-02-04T11:05:19.836Z,11.70
2018-02-04T11:07:50.986Z,11.23
2018-02-04T11:10:22.088Z,11.33
2018-02-04T11:12:53.126Z,12.20
2018-02-04T11:15:24.221Z,10.93
2018-02-04T11:17:55.320Z,10.53
2018-02-04T11:20:26.362Z,9.67
2018-02-04T11:22:57.443Z,9.80
2018-02-04T11:25:28.805Z,11.43
2018-02-04T11:27:59.864Z,9.90
2018-02-04T11:30:31.039Z,9.60
2018-02-04T11:33:02.127Z,9.03
2018-02-04T11:35:33.211Z,11.13
2018-02-04T11:38:04.264Z,11.30
2018-02-04T11:40:35.330Z,9.77
2018-02-04T11:43:06.354Z,13.27
2018-02-04T11:45:37.426Z,9.07
2018-02-04T11:48:08.498Z,9.77
2018-02-04T11:50:39.598Z,7.93
2018-02-04T11:53:10.731Z,7.53
2018-02-04T11:55:41.842Z,10.47
2018-02-04T11:58:12.971Z,9.50
2018-02-04T12:00:44.070Z,8.67
2018-02-04T12:03:15.209Z,10.73
2018-02-04T12:05:46.299Z,9.83
2018-02-04T12:08:17.378Z,11.23
2018-02-04T12:10:48.445Z,9.67
2018-02-04T12:13:19.548Z,9.30
2018-02-04T12:15:50.674Z,9.53
2018-02-04T12:18:21.750Z,10.07
2018-02-04T12:20:52.812Z,9.57
2018-02-04T12:23:23.894Z,8.83
2018-02-04T12:32:40.034Z,11.10
2018-02-04T12:35:11.110Z,8.97
2018-02-04T12:37:42.207Z,10.63
2018-02-04T12:40:13.306Z,14.37
2018-02-04T12:42:44.357Z,14.40
2018-02-04T12:45:15.426Z,14.33
2018-02-04T12:47:46.524Z,13.97
2018-02-04T12:50:17.649Z,12.00
2018-02-04T12:52:48.798Z,12.90
2018-02-04T12:55:19.865Z,11.87
2018-02-04T12:57:50.957Z,10.83
2018-02-04T13:00:22.043Z,12.33
2018-02-04T13:02:53.096Z,12.83
2018-02-04T13:05:24.139Z,11.33
2018-02-04T13:07:55.193Z,9.33
2018-02-04T13:10:26.282Z,10.60
2018-02-04T13:12:57.567Z,10.83
2018-02-04T13:15:28.635Z,11.00
2018-02-04T13:17:59.709Z,9.57
2018-02-04T13:20:30.791Z,10.40
2018-02-04T13:23:01.908Z,9.30
2018-02-04T13:25:33.176Z,9.13
2018-02-04T13:28:04.262Z,9.37
2018-02-04T13:30:35.353Z,10.53
2018-02-04T13:33:06.433Z,12.60
2018-02-04T13:35:37.779Z,10.73
2018-02-04T13:38:08.862Z,10.60
2018-02-04T13:40:39.950Z,9.83
2018-02-04T13:43:11.318Z,11.33
2018-02-04T13:45:42.364Z,10.70
2018-02-04T13:48:13.444Z,11.60
2018-02-04T13:50:44.543Z,9.03
2018-02-04T13:53:15.700Z,8.33
2018-02-04T13:55:46.794Z,8.67
2018-02-04T13:58:17.903Z,8.57
2018-02-04T14:00:48.954Z,8.77
2018-02-04T14:03:20.070Z,9.50
2018-02-04T14:05:51.243Z,9.60
2018-02-04T14:08:22.349Z,9.67
2018-02-04T14:10:53.456Z,9.17
2018-02-04T14:13:24.581Z,9.90
2018-02-04T14:15:55.655Z,9.70
2018-02-04T14:18:26.728Z,10.07
2018-02-04T14:20:57.828Z,9.73
2018-02-04T14:23:28.943Z,10.40
2018-02-04T14:26:00.014Z,9.30
2018-02-04T14:28:31.095Z,9.23
2018-02-04T14:31:02.178Z,8.90
2018-02-04T14:33:33.279Z,10.07
2018-02-04T14:36:04.590Z,10.10
2018-02-04T14:38:35.670Z,9.90
2018-02-04T14:41:06.789Z,8.60
2018-02-04T14:43:37.933Z,9.63
2018-02-04T14:46:09.020Z,9.00
2018-02-04T14:48:40.066Z,9.73
2018-02-04T14:51:11.086Z,7.20
2018-02-04T14:53:42.189Z,7.77
2018-02-04T14:56:13.352Z,5.93
2018-02-04T14:58:44.468Z,7.63
2018-02-04T15:01:15.558Z,6.53
2018-02-04T15:03:46.639Z,7.30
2018-02-04T15:06:17.730Z,7.03
2018-02-04T15:08:48.782Z,7.30
2018-02-04T15:11:19.854Z,6.73
2018-02-04T15:13:51.074Z,9.10
2018-02-04T15:16:22.093Z,7.50
2018-02-04T15:18:53.177Z,7.77
2018-02-04T15:21:24.262Z,9.63
2018-02-04T15:23:55.721Z,8.60
2018-02-04T15:26:26.903Z,10.03
2018-02-04T15:28:57.995Z,11.23
2018-02-04T15:31:29.069Z,8.83
2018-02-04T15:34:00.141Z,11.87
2018-02-04T15:36:31.190Z,11.67
2018-02-04T15:39:02.244Z,11.23
2018-02-04T15:41:33.409Z,11.90
2018-02-04T15:44:04.469Z,10.23
2018-02-04T15:46:35.552Z,19.57
2018-02-04T15:49:06.702Z,15.77
2018-02-04T15:51:37.806Z,10.53
2018-02-04T15:54:08.878Z,12.07
2018-02-04T15:56:39.985Z,10.73
2018-02-04T15:59:17.928Z,13.70
2018-02-04T16:01:49.038Z,10.27
2018-02-04T16:04:20.129Z,9.90
2018-02-04T16:06:51.210Z,14.50
2018-02-04T16:09:22.317Z,12.37
2018-02-04T16:11:53.400Z,10.40
2018-02-04T16:14:24.507Z,12.32
2018-02-04T16:16:55.596Z,10.70
2018-02-04T16:19:26.697Z,12.00
2018-02-04T16:21:57.762Z,12.53
2018-02-04T16:24:28.878Z,15.40
2018-02-04T16:26:59.981Z,14.53
2018-02-04T16:29:31.069Z,12.93
2018-02-04T16:32:02.190Z,12.90
2018-02-04T16:34:33.295Z,14.60
2018-02-04T16:37:04.358Z,11.23
2018-02-04T16:39:35.428Z,16.50
2018-02-04T16:42:06.508Z,12.30
2018-02-04T16:44:37.608Z,12.43
2018-02-04T16:47:08.703Z,11.03
2018-02-04T16:49:39.766Z,10.57
2018-02-04T16:52:10.858Z,12.07
2018-02-04T16:54:41.933Z,11.27
2018-02-04T16:57:13.031Z,14.43
2018-02-04T16:59:44.618Z,14.07
2018-02-04T17:02:15.706Z,16.43
2018-02-04T17:04:46.747Z,15.87
2018-02-04T17:07:17.890Z,15.60
2018-02-04T17:09:48.950Z,13.57
2018-02-04T17:12:20.026Z,17.63
2018-02-04T17:14:51.116Z,19.73
2018-02-04T17:17:22.791Z,16.92
2018-02-04T17:19:53.913Z,17.40
2018-02-04T17:22:25.038Z,14.30
2018-02-04T17:24:56.197Z,14.93
2018-02-04T17:27:27.269Z,16.67
2018-02-04T17:29:58.358Z,14.93
2018-02-04T17:32:29.447Z,14.02
2018-02-04T17:35:00.509Z,14.48
2018-02-04T17:37:31.659Z,14.52
2018-02-04T17:40:02.756Z,14.87
2018-02-04T17:42:33.907Z,15.20
2018-02-04T17:45:05.001Z,15.10
2018-02-04T17:47:36.127Z,16.05
2018-02-04T17:50:07.221Z,19.80
2018-02-04T17:52:38.400Z,16.90
2018-02-04T17:55:09.527Z,17.35
2018-02-04T17:57:40.882Z,16.58
2018-02-04T18:00:11.998Z,20.00
2018-02-04T18:02:43.042Z,20.90
2018-02-04T18:05:14.179Z,21.90
2018-02-04T18:07:46.026Z,20.62
2018-02-04T18:10:17.182Z,18.98
2018-02-04T18:12:48.369Z,20.75
2018-02-04T18:15:19.434Z,20.77
2018-02-04T18:17:50.604Z,20.48
2018-02-04T18:20:21.645Z,21.25
2018-02-04T18:22:52.713Z,22.45
2018-02-04T18:25:23.860Z,21.27
2018-02-04T18:27:54.995Z,23.35
2018-02-04T18:30:26.185Z,23.08
2018-02-04T18:32:57.323Z,24.27
2018-02-04T18:35:28.414Z,28.58
2018-02-04T18:37:59.659Z,26.00
2018-02-04T18:40:30.767Z,26.60
2018-02-04T18:43:01.856Z,24.37
2018-02-04T18:45:32.999Z,26.73
2018-02-04T18:48:04.126Z,28.90
2018-02-04T18:50:35.302Z,29.42
2018-02-04T18:53:06.453Z,28.85
2018-02-04T18:55:37.549Z,29.50
2018-02-04T18:58:08.582Z,31.90
2018-02-04T19:00:39.636Z,34.53
2018-02-04T19:03:10.691Z,31.08
2018-02-04T19:05:41.971Z,29.45
2018-02-04T19:08:13.051Z,32.90
2018-02-04T19:10:44.195Z,29.30
2018-02-04T19:13:15.251Z,33.53
2018-02-04T19:15:46.376Z,36.72
2018-02-04T19:18:17.498Z,33.30
2018-02-04T19:20:48.606Z,37.35
2018-02-04T19:23:19.730Z,36.13
2018-02-04T19:25:50.869Z,38.45
2018-02-04T19:28:21.959Z,34.13
2018-02-04T19:30:53.101Z,34.70
2018-02-04T19:33:24.178Z,35.95
2018-02-04T19:35:55.329Z,33.78
2018-02-04T19:38:26.407Z,33.40
2018-02-04T19:40:57.531Z,33.03
2018-02-04T19:43:28.621Z,33.65
2018-02-04T19:45:59.773Z,34.58
2018-02-04T19:48:30.826Z,35.58
2018-02-04T19:51:01.972Z,40.00
2018-02-04T19:53:33.114Z,36.10
2018-02-04T19:56:04.236Z,36.88
2018-02-04T19:58:35.325Z,34.30
2018-02-04T20:01:07.035Z,37.75
2018-02-04T20:03:38.134Z,36.42
2018-02-04T20:06:09.356Z,34.42
2018-02-04T20:08:40.480Z,34.55
2018-02-04T20:11:11.603Z,38.10
2018-02-04T20:13:42.648Z,35.80
2018-02-04T20:16:13.754Z,34.10
2018-02-04T20:18:44.836Z,38.20
2018-02-04T20:21:15.906Z,36.83
2018-02-04T20:23:47.024Z,41.08
2018-02-04T20:26:18.144Z,39.00
2018-02-04T20:28:49.230Z,41.42
2018-02-04T20:31:21.023Z,41.63
2018-02-04T20:34:04.480Z,44.00
2018-02-04T20:36:35.628Z,42.67
2018-02-04T20:39:06.667Z,39.05
2018-02-04T20:41:37.785Z,43.30
2018-02-04T20:44:08.826Z,44.22
2018-02-04T20:46:39.930Z,43.10
2018-02-04T20:49:11.016Z,45.42
2018-02-04T20:51:42.153Z,48.15
2018-02-04T20:54:13.298Z,46.22
2018-02-04T20:56:44.340Z,43.17
2018-02-04T20:59:15.463Z,46.60
2018-02-04T21:01:46.525Z,42.87
2018-02-04T21:04:17.594Z,41.85
2018-02-04T21:06:48.724Z,48.15
2018-02-04T21:09:19.990Z,46.75
2018-02-04T21:11:51.030Z,48.38
2018-02-04T21:14:22.168Z,51.13
2018-02-04T21:16:53.258Z,50.45
2018-02-04T21:19:24.386Z,45.78
2018-02-04T21:21:55.498Z,48.70
2018-02-04T21:24:26.642Z,45.90
2018-02-04T21:26:57.788Z,40.85
2018-02-04T21:29:28.891Z,43.53
2018-02-04T21:31:59.958Z,41.33
2018-02-04T21:34:31.096Z,50.55
2018-02-04T21:37:02.148Z,52.22
2018-02-04T21:39:33.268Z,52.60
2018-02-04T21:42:04.338Z,50.20
2018-02-04T21:44:35.461Z,45.85
2018-02-04T21:47:06.507Z,50.53
2018-02-04T21:49:37.622Z,43.87
2018-02-04T21:52:08.676Z,47.58
2018-02-04T21:54:39.718Z,53.33
2018-02-04T21:57:10.802Z,48.15
2018-02-04T21:59:41.848Z,51.95
2018-02-04T22:02:12.974Z,50.67
2018-02-04T22:04:44.071Z,54.55
2018-02-04T22:07:15.336Z,58.05
2018-02-04T22:09:46.378Z,56.33
2018-02-04T22:12:17.479Z,57.88
2018-02-04T22:14:48.605Z,54.60
2018-02-04T22:17:19.655Z,56.15
2018-02-04T22:19:50.746Z,52.25
2018-02-04T22:22:22.016Z,45.53
2018-02-04T22:24:54.164Z,50.28
2018-02-04T22:27:25.284Z,45.17
2018-02-04T22:29:56.394Z,49.75
2018-02-04T22:32:27.468Z,46.17
2018-02-04T22:34:58.595Z,43.33
2018-02-04T22:37:29.670Z,44.25
2018-02-04T22:40:00.812Z,45.28
2018-02-04T22:42:31.876Z,45.83
2018-02-04T22:45:02.987Z,41.90
2018-02-04T22:47:34.035Z,45.12
2018-02-04T22:50:05.140Z,42.08
2018-02-04T22:52:36.260Z,43.30
2018-02-04T22:55:07.416Z,43.30
2018-02-04T22:57:38.510Z,43.13
2018-02-04T23:00:09.679Z,44.25
2018-02-04T23:02:40.824Z,42.53
2018-02-04T23:05:11.894Z,40.50
2018-02-04T23:07:42.985Z,40.58
2018-02-04T23:10:14.069Z,40.12
2018-02-04T23:12:45.147Z,46.58
2018-02-04T23:15:16.264Z,41.53
2018-02-04T23:17:47.320Z,43.20
2018-02-04T23:20:18.514Z,39.00
2018-02-04T23:22:49.539Z,45.28
2018-02-04T23:25:20.671Z,40.20
2018-02-04T23:27:51.759Z,42.55
2018-02-04T23:30:22.855Z,42.08
2018-02-04T23:32:53.891Z,44.38
2018-02-04T23:35:25.006Z,41.22
2018-02-04T23:37:56.116Z,43.05
2018-02-04T23:40:27.264Z,37.28
2018-02-04T23:42:58.360Z,43.67
2018-02-04T23:45:29.422Z,41.33
2018-02-04T23:48:00.530Z,44.35
2018-02-04T23:50:31.582Z,44.20
2018-02-04T23:53:03.670Z,43.22
2018-02-04T23:55:34.742Z,39.08
2018-02-04T23:58:05.885Z,41.58
